Andrewsfield, United Kingdom
Current Conditions -  °F | °C
As of 11:50 AM on Monday 22 Dec 2014 (Local Time) from EGYM Reporting Station
Overcast Overcast  
Wind Chill: 55°   Ceiling: 2500
Heat Index: 55°   Visibility: 6mi
Dew Point: 48°   Wind: 24mph
Humidity: 77%   Direction: 240°WSW
Pressure: 29.91"   Gusts: 36mph
Location:  52.88°N, 0.45°E
Report Text: EGYM 221150Z AUTO 24021G31KT 9999 OVC025/// 13/09 Q1013
Loading
Personal Weather Stations






























Interactive Weather Map New forecast layout! Learn more

10-Day Weather Forecast

Advertisements
Track Severe Weather on mobile